sensor_id;sensor_type;location;lat;lon;timestamp;temperature;humidity
68485;DHT22;55472;50.060;21.960;2023-01-28T00:00:12;-1.50;89.30
68485;DHT22;55472;50.060;21.960;2023-01-28T00:02:59;-1.50;89.30
68485;DHT22;55472;50.060;21.960;2023-01-28T00:05:25;-1.50;89.30
68485;DHT22;55472;50.060;21.960;2023-01-28T00:07:51;-1.50;89.10
68485;DHT22;55472;50.060;21.960;2023-01-28T00:10:17;-1.50;89.20
68485;DHT22;55472;50.060;21.960;2023-01-28T00:12:44;-1.50;89.20
68485;DHT22;55472;50.060;21.960;2023-01-28T00:15:10;-1.60;88.80
68485;DHT22;55472;50.060;21.960;2023-01-28T00:17:37;-1.60;89.30
68485;DHT22;55472;50.060;21.960;2023-01-28T00:20:04;-1.60;89.40
68485;DHT22;55472;50.060;21.960;2023-01-28T00:22:31;-1.60;89.30
68485;DHT22;55472;50.060;21.960;2023-01-28T00:24:58;-1.60;89.50
68485;DHT22;55472;50.060;21.960;2023-01-28T00:27:24;-1.60;89.70
68485;DHT22;55472;50.060;21.960;2023-01-28T00:29:50;-1.70;89.20
68485;DHT22;55472;50.060;21.960;2023-01-28T00:32:18;-1.70;89.30
68485;DHT22;55472;50.060;21.960;2023-01-28T00:34:44;-1.70;89.40
68485;DHT22;55472;50.060;21.960;2023-01-28T00:37:11;-1.70;89.40
68485;DHT22;55472;50.060;21.960;2023-01-28T00:39:37;-1.70;89.30
68485;DHT22;55472;50.060;21.960;2023-01-28T00:42:03;-1.70;89.10
68485;DHT22;55472;50.060;21.960;2023-01-28T00:44:30;-1.70;89.20
68485;DHT22;55472;50.060;21.960;2023-01-28T00:46:56;-1.70;89.10
68485;DHT22;55472;50.060;21.960;2023-01-28T00:49:22;-1.70;89.00
68485;DHT22;55472;50.060;21.960;2023-01-28T00:51:49;-1.60;89.10
68485;DHT22;55472;50.060;21.960;2023-01-28T00:54:15;-1.60;88.90
68485;DHT22;55472;50.060;21.960;2023-01-28T00:56:41;-1.60;89.00
68485;DHT22;55472;50.060;21.960;2023-01-28T00:59:07;-1.60;88.90
68485;DHT22;55472;50.060;21.960;2023-01-28T01:01:34;-1.60;88.70
68485;DHT22;55472;50.060;21.960;2023-01-28T01:04:00;-1.60;88.50
68485;DHT22;55472;50.060;21.960;2023-01-28T01:06:32;-1.60;88.20
68485;DHT22;55472;50.060;21.960;2023-01-28T01:09:05;-1.60;88.30
68485;DHT22;55472;50.060;21.960;2023-01-28T01:11:34;-1.60;87.90
68485;DHT22;55472;50.060;21.960;2023-01-28T01:14:00;-1.60;87.70
68485;DHT22;55472;50.060;21.960;2023-01-28T01:16:31;-1.70;87.70
68485;DHT22;55472;50.060;21.960;2023-01-28T01:18:58;-1.70;87.80
68485;DHT22;55472;50.060;21.960;2023-01-28T01:21:26;-1.60;87.90
68485;DHT22;55472;50.060;21.960;2023-01-28T01:23:53;-1.60;87.80
68485;DHT22;55472;50.060;21.960;2023-01-28T01:26:20;-1.60;87.60
68485;DHT22;55472;50.060;21.960;2023-01-28T01:28:46;-1.70;87.50
68485;DHT22;55472;50.060;21.960;2023-01-28T01:31:17;-1.60;87.70
68485;DHT22;55472;50.060;21.960;2023-01-28T01:33:46;-1.70;87.70
68485;DHT22;55472;50.060;21.960;2023-01-28T01:36:14;-1.60;87.70
68485;DHT22;55472;50.060;21.960;2023-01-28T01:38:42;-1.60;87.30
68485;DHT22;55472;50.060;21.960;2023-01-28T01:41:08;-1.70;87.30
68485;DHT22;55472;50.060;21.960;2023-01-28T01:43:50;-1.60;87.40
68485;DHT22;55472;50.060;21.960;2023-01-28T01:46:36;-1.60;87.20
68485;DHT22;55472;50.060;21.960;2023-01-28T01:49:20;-1.60;86.50
68485;DHT22;55472;50.060;21.960;2023-01-28T01:51:57;-1.70;86.70
68485;DHT22;55472;50.060;21.960;2023-01-28T01:54:27;-1.60;86.50
68485;DHT22;55472;50.060;21.960;2023-01-28T01:56:55;-1.70;86.90
68485;DHT22;55472;50.060;21.960;2023-01-28T01:59:26;-1.70;86.60
68485;DHT22;55472;50.060;21.960;2023-01-28T02:01:55;-1.70;86.70
68485;DHT22;55472;50.060;21.960;2023-01-28T02:04:40;-1.70;86.20
68485;DHT22;55472;50.060;21.960;2023-01-28T02:07:11;-1.70;86.40
68485;DHT22;55472;50.060;21.960;2023-01-28T02:09:40;-1.70;86.30
68485;DHT22;55472;50.060;21.960;2023-01-28T02:12:26;-1.70;86.10
68485;DHT22;55472;50.060;21.960;2023-01-28T02:14:59;-1.70;86.80
68485;DHT22;55472;50.060;21.960;2023-01-28T02:17:37;-1.70;86.60
68485;DHT22;55472;50.060;21.960;2023-01-28T02:20:09;-1.70;86.50
68485;DHT22;55472;50.060;21.960;2023-01-28T02:28:56;-1.70;86.20
68485;DHT22;55472;50.060;21.960;2023-01-28T02:34:29;-1.70;86.10
68485;DHT22;55472;50.060;21.960;2023-01-28T02:40:21;-1.70;86.10
68485;DHT22;55472;50.060;21.960;2023-01-28T02:42:55;-1.70;85.90
68485;DHT22;55472;50.060;21.960;2023-01-28T02:45:30;-1.70;85.90
68485;DHT22;55472;50.060;21.960;2023-01-28T02:48:17;-1.70;86.30
68485;DHT22;55472;50.060;21.960;2023-01-28T02:51:17;-1.70;86.10
68485;DHT22;55472;50.060;21.960;2023-01-28T02:54:13;-1.70;86.30
68485;DHT22;55472;50.060;21.960;2023-01-28T02:56:59;-1.70;86.30
68485;DHT22;55472;50.060;21.960;2023-01-28T03:02:11;-1.80;85.70
68485;DHT22;55472;50.060;21.960;2023-01-28T03:05:06;-1.80;85.90
68485;DHT22;55472;50.060;21.960;2023-01-28T03:07:37;-1.80;85.30
68485;DHT22;55472;50.060;21.960;2023-01-28T03:10:09;-1.80;85.80
68485;DHT22;55472;50.060;21.960;2023-01-28T03:12:39;-1.80;86.20
68485;DHT22;55472;50.060;21.960;2023-01-28T03:15:48;-1.80;85.60
68485;DHT22;55472;50.060;21.960;2023-01-28T03:18:45;-1.90;86.00
68485;DHT22;55472;50.060;21.960;2023-01-28T03:21:37;-1.90;86.20
68485;DHT22;55472;50.060;21.960;2023-01-28T03:24:30;-1.80;85.90
68485;DHT22;55472;50.060;21.960;2023-01-28T03:27:21;-1.80;85.50
68485;DHT22;55472;50.060;21.960;2023-01-28T03:30:19;-1.80;85.70
68485;DHT22;55472;50.060;21.960;2023-01-28T03:33:08;-1.80;85.30
68485;DHT22;55472;50.060;21.960;2023-01-28T03:35:53;-1.90;85.30
68485;DHT22;55472;50.060;21.960;2023-01-28T03:38:40;-1.90;85.50
68485;DHT22;55472;50.060;21.960;2023-01-28T03:41:09;-1.90;85.20
68485;DHT22;55472;50.060;21.960;2023-01-28T03:43:36;-1.90;85.10
68485;DHT22;55472;50.060;21.960;2023-01-28T03:46:03;-1.90;85.40
68485;DHT22;55472;50.060;21.960;2023-01-28T03:48:31;-1.90;85.50
68485;DHT22;55472;50.060;21.960;2023-01-28T03:50:57;-1.90;85.40
68485;DHT22;55472;50.060;21.960;2023-01-28T03:53:25;-1.90;85.20
68485;DHT22;55472;50.060;21.960;2023-01-28T03:55:53;-1.90;85.10
68485;DHT22;55472;50.060;21.960;2023-01-28T03:58:21;-1.90;84.90
68485;DHT22;55472;50.060;21.960;2023-01-28T04:00:52;-1.90;84.50
68485;DHT22;55472;50.060;21.960;2023-01-28T04:03:20;-1.90;84.60
68485;DHT22;55472;50.060;21.960;2023-01-28T04:05:58;-1.90;84.60
68485;DHT22;55472;50.060;21.960;2023-01-28T04:08:29;-1.90;84.60
68485;DHT22;55472;50.060;21.960;2023-01-28T04:10:55;-1.90;84.10
68485;DHT22;55472;50.060;21.960;2023-01-28T04:13:22;-1.90;84.10
68485;DHT22;55472;50.060;21.960;2023-01-28T04:15:48;-1.90;84.10
68485;DHT22;55472;50.060;21.960;2023-01-28T04:18:14;-2.00;84.10
68485;DHT22;55472;50.060;21.960;2023-01-28T04:20:41;-1.90;84.20
68485;DHT22;55472;50.060;21.960;2023-01-28T04:23:07;-1.90;84.10
68485;DHT22;55472;50.060;21.960;2023-01-28T04:25:33;-2.00;83.90
68485;DHT22;55472;50.060;21.960;2023-01-28T04:27:59;-2.00;84.00
68485;DHT22;55472;50.060;21.960;2023-01-28T04:30:26;-2.00;83.90
68485;DHT22;55472;50.060;21.960;2023-01-28T04:32:52;-2.00;84.10
68485;DHT22;55472;50.060;21.960;2023-01-28T04:35:19;-2.00;83.90
68485;DHT22;55472;50.060;21.960;2023-01-28T04:37:45;-2.00;83.20
68485;DHT22;55472;50.060;21.960;2023-01-28T04:40:12;-2.00;83.10
68485;DHT22;55472;50.060;21.960;2023-01-28T04:42:38;-2.00;83.20
68485;DHT22;55472;50.060;21.960;2023-01-28T04:45:05;-2.00;83.20
68485;DHT22;55472;50.060;21.960;2023-01-28T04:47:32;-2.00;83.00
68485;DHT22;55472;50.060;21.960;2023-01-28T04:49:58;-2.00;83.30
68485;DHT22;55472;50.060;21.960;2023-01-28T04:52:24;-2.00;83.60
68485;DHT22;55472;50.060;21.960;2023-01-28T04:54:51;-2.00;83.30
68485;DHT22;55472;50.060;21.960;2023-01-28T04:57:17;-2.00;83.40
68485;DHT22;55472;50.060;21.960;2023-01-28T04:59:43;-2.00;83.20
68485;DHT22;55472;50.060;21.960;2023-01-28T05:02:09;-2.00;83.20
68485;DHT22;55472;50.060;21.960;2023-01-28T05:04:35;-2.00;83.10
68485;DHT22;55472;50.060;21.960;2023-01-28T05:07:01;-2.00;83.10
68485;DHT22;55472;50.060;21.960;2023-01-28T05:09:28;-2.00;83.30
68485;DHT22;55472;50.060;21.960;2023-01-28T05:11:54;-2.00;83.10
68485;DHT22;55472;50.060;21.960;2023-01-28T05:14:20;-2.00;83.50
68485;DHT22;55472;50.060;21.960;2023-01-28T05:16:46;-2.00;83.70
68485;DHT22;55472;50.060;21.960;2023-01-28T05:19:12;-2.00;83.40
68485;DHT22;55472;50.060;21.960;2023-01-28T05:21:38;-2.00;83.60
68485;DHT22;55472;50.060;21.960;2023-01-28T05:24:05;-2.10;83.70
68485;DHT22;55472;50.060;21.960;2023-01-28T05:26:31;-2.10;84.10
68485;DHT22;55472;50.060;21.960;2023-01-28T05:28:58;-2.10;83.50
68485;DHT22;55472;50.060;21.960;2023-01-28T05:31:24;-2.10;83.70
68485;DHT22;55472;50.060;21.960;2023-01-28T05:33:50;-2.10;83.40
68485;DHT22;55472;50.060;21.960;2023-01-28T05:36:18;-2.10;83.70
68485;DHT22;55472;50.060;21.960;2023-01-28T05:38:44;-2.00;83.70
68485;DHT22;55472;50.060;21.960;2023-01-28T05:41:10;-2.00;83.70
68485;DHT22;55472;50.060;21.960;2023-01-28T05:43:36;-2.10;84.00
68485;DHT22;55472;50.060;21.960;2023-01-28T05:46:03;-2.10;83.90
68485;DHT22;55472;50.060;21.960;2023-01-28T05:48:29;-2.10;83.60
68485;DHT22;55472;50.060;21.960;2023-01-28T05:50:55;-2.10;83.60
68485;DHT22;55472;50.060;21.960;2023-01-28T05:53:22;-2.10;83.70
68485;DHT22;55472;50.060;21.960;2023-01-28T05:55:49;-2.10;83.50
68485;DHT22;55472;50.060;21.960;2023-01-28T05:58:16;-2.10;84.00
68485;DHT22;55472;50.060;21.960;2023-01-28T06:00:42;-2.10;84.10
68485;DHT22;55472;50.060;21.960;2023-01-28T06:03:09;-2.10;83.90
68485;DHT22;55472;50.060;21.960;2023-01-28T06:05:35;-2.10;83.90
68485;DHT22;55472;50.060;21.960;2023-01-28T06:08:01;-2.10;83.70
68485;DHT22;55472;50.060;21.960;2023-01-28T06:10:27;-2.10;83.50
68485;DHT22;55472;50.060;21.960;2023-01-28T06:12:53;-2.10;83.60
68485;DHT22;55472;50.060;21.960;2023-01-28T06:15:19;-2.10;83.70
68485;DHT22;55472;50.060;21.960;2023-01-28T06:17:46;-2.10;83.70
68485;DHT22;55472;50.060;21.960;2023-01-28T06:20:12;-2.10;83.50
68485;DHT22;55472;50.060;21.960;2023-01-28T06:22:38;-2.10;83.40
68485;DHT22;55472;50.060;21.960;2023-01-28T06:25:05;-2.10;83.20
68485;DHT22;55472;50.060;21.960;2023-01-28T06:27:32;-2.10;83.50
68485;DHT22;55472;50.060;21.960;2023-01-28T06:29:58;-2.10;83.80
68485;DHT22;55472;50.060;21.960;2023-01-28T06:32:24;-2.10;83.50
68485;DHT22;55472;50.060;21.960;2023-01-28T06:34:50;-2.10;83.50
68485;DHT22;55472;50.060;21.960;2023-01-28T06:37:17;-2.10;83.40
68485;DHT22;55472;50.060;21.960;2023-01-28T06:39:43;-2.10;83.50
68485;DHT22;55472;50.060;21.960;2023-01-28T06:42:09;-2.10;83.00
68485;DHT22;55472;50.060;21.960;2023-01-28T06:44:35;-2.10;82.90
68485;DHT22;55472;50.060;21.960;2023-01-28T06:47:02;-2.10;82.70
68485;DHT22;55472;50.060;21.960;2023-01-28T06:49:28;-2.10;83.00
68485;DHT22;55472;50.060;21.960;2023-01-28T06:51:54;-2.10;83.00
68485;DHT22;55472;50.060;21.960;2023-01-28T06:54:20;-2.10;83.00
68485;DHT22;55472;50.060;21.960;2023-01-28T06:56:47;-2.10;82.80
68485;DHT22;55472;50.060;21.960;2023-01-28T06:59:13;-2.10;83.00
68485;DHT22;55472;50.060;21.960;2023-01-28T07:01:39;-2.00;83.10
68485;DHT22;55472;50.060;21.960;2023-01-28T07:04:05;-2.00;82.90
68485;DHT22;55472;50.060;21.960;2023-01-28T07:06:32;-2.00;82.50
68485;DHT22;55472;50.060;21.960;2023-01-28T07:08:58;-2.00;82.40
68485;DHT22;55472;50.060;21.960;2023-01-28T07:11:24;-2.00;82.60
68485;DHT22;55472;50.060;21.960;2023-01-28T07:13:50;-1.90;82.80
68485;DHT22;55472;50.060;21.960;2023-01-28T07:16:17;-1.90;82.20
68485;DHT22;55472;50.060;21.960;2023-01-28T07:18:43;-1.90;82.20
68485;DHT22;55472;50.060;21.960;2023-01-28T07:21:09;-1.90;82.30
68485;DHT22;55472;50.060;21.960;2023-01-28T07:23:35;-1.80;82.50
68485;DHT22;55472;50.060;21.960;2023-01-28T07:26:02;-1.80;82.00
68485;DHT22;55472;50.060;21.960;2023-01-28T07:28:29;-1.80;82.00
68485;DHT22;55472;50.060;21.960;2023-01-28T07:30:56;-1.80;81.80
68485;DHT22;55472;50.060;21.960;2023-01-28T07:33:22;-1.80;81.70
68485;DHT22;55472;50.060;21.960;2023-01-28T07:35:49;-1.80;81.50
68485;DHT22;55472;50.060;21.960;2023-01-28T07:38:15;-1.80;81.40
68485;DHT22;55472;50.060;21.960;2023-01-28T07:40:41;-1.70;81.50
68485;DHT22;55472;50.060;21.960;2023-01-28T07:43:08;-1.70;81.00
68485;DHT22;55472;50.060;21.960;2023-01-28T07:45:35;-1.70;81.50
68485;DHT22;55472;50.060;21.960;2023-01-28T07:48:03;-1.70;80.90
68485;DHT22;55472;50.060;21.960;2023-01-28T07:50:33;-1.60;80.90
68485;DHT22;55472;50.060;21.960;2023-01-28T07:53:09;-1.60;80.10
68485;DHT22;55472;50.060;21.960;2023-01-28T07:55:37;-1.60;80.30
68485;DHT22;55472;50.060;21.960;2023-01-28T07:58:08;-1.60;80.50
68485;DHT22;55472;50.060;21.960;2023-01-28T08:00:37;-1.60;80.40
68485;DHT22;55472;50.060;21.960;2023-01-28T08:03:06;-1.50;80.10
68485;DHT22;55472;50.060;21.960;2023-01-28T08:05:43;-1.50;80.10
68485;DHT22;55472;50.060;21.960;2023-01-28T08:08:11;-1.50;80.30
68485;DHT22;55472;50.060;21.960;2023-01-28T08:10:39;-1.50;80.10
68485;DHT22;55472;50.060;21.960;2023-01-28T08:13:06;-1.40;79.80
68485;DHT22;55472;50.060;21.960;2023-01-28T08:15:33;-1.40;79.80
68485;DHT22;55472;50.060;21.960;2023-01-28T08:17:59;-1.40;79.40
68485;DHT22;55472;50.060;21.960;2023-01-28T08:20:28;-1.40;79.40
68485;DHT22;55472;50.060;21.960;2023-01-28T08:23:14;-1.40;79.60
68485;DHT22;55472;50.060;21.960;2023-01-28T08:25:42;-1.40;79.80
68485;DHT22;55472;50.060;21.960;2023-01-28T08:28:08;-1.30;79.90
68485;DHT22;55472;50.060;21.960;2023-01-28T08:30:36;-1.30;79.60
68485;DHT22;55472;50.060;21.960;2023-01-28T08:33:05;-1.30;80.10
68485;DHT22;55472;50.060;21.960;2023-01-28T08:35:33;-1.20;79.70
68485;DHT22;55472;50.060;21.960;2023-01-28T08:38:00;-1.20;79.80
68485;DHT22;55472;50.060;21.960;2023-01-28T08:40:28;-1.10;79.40
68485;DHT22;55472;50.060;21.960;2023-01-28T08:42:55;-1.10;79.40
68485;DHT22;55472;50.060;21.960;2023-01-28T08:45:23;-1.00;79.20
68485;DHT22;55472;50.060;21.960;2023-01-28T08:47:58;-1.00;79.20
68485;DHT22;55472;50.060;21.960;2023-01-28T08:50:32;-1.00;79.00
68485;DHT22;55472;50.060;21.960;2023-01-28T08:53:05;-0.90;79.30
68485;DHT22;55472;50.060;21.960;2023-01-28T08:55:33;-0.90;79.20
68485;DHT22;55472;50.060;21.960;2023-01-28T08:58:04;-0.90;78.90
68485;DHT22;55472;50.060;21.960;2023-01-28T09:00:33;-0.80;78.30
68485;DHT22;55472;50.060;21.960;2023-01-28T09:02:59;-0.80;78.80
68485;DHT22;55472;50.060;21.960;2023-01-28T09:05:26;-0.80;78.30
68485;DHT22;55472;50.060;21.960;2023-01-28T09:07:52;-0.90;78.20
68485;DHT22;55472;50.060;21.960;2023-01-28T09:10:18;-0.80;78.30
68485;DHT22;55472;50.060;21.960;2023-01-28T09:12:50;-0.80;77.80
68485;DHT22;55472;50.060;21.960;2023-01-28T09:15:24;-0.90;77.90
68485;DHT22;55472;50.060;21.960;2023-01-28T09:17:56;-0.80;78.00
68485;DHT22;55472;50.060;21.960;2023-01-28T09:20:24;-0.80;78.30
68485;DHT22;55472;50.060;21.960;2023-01-28T09:22:51;-0.80;77.80
68485;DHT22;55472;50.060;21.960;2023-01-28T09:25:17;-0.80;78.30
68485;DHT22;55472;50.060;21.960;2023-01-28T09:27:43;-0.70;78.40
68485;DHT22;55472;50.060;21.960;2023-01-28T09:30:10;-0.70;78.10
68485;DHT22;55472;50.060;21.960;2023-01-28T09:32:38;-0.70;78.40
68485;DHT22;55472;50.060;21.960;2023-01-28T09:35:05;-0.60;77.60
68485;DHT22;55472;50.060;21.960;2023-01-28T09:37:31;-0.70;77.70
68485;DHT22;55472;50.060;21.960;2023-01-28T09:39:57;-0.60;77.80
68485;DHT22;55472;50.060;21.960;2023-01-28T09:42:37;-0.60;77.80
68485;DHT22;55472;50.060;21.960;2023-01-28T09:47:52;-0.50;77.80
68485;DHT22;55472;50.060;21.960;2023-01-28T09:50:34;-0.40;77.80
68485;DHT22;55472;50.060;21.960;2023-01-28T09:53:31;-0.40;77.60
68485;DHT22;55472;50.060;21.960;2023-01-28T09:56:03;-0.40;76.80
68485;DHT22;55472;50.060;21.960;2023-01-28T09:58:32;-0.40;76.90
68485;DHT22;55472;50.060;21.960;2023-01-28T10:03:52;-0.30;77.00
68485;DHT22;55472;50.060;21.960;2023-01-28T10:18:55;-0.20;76.10
68485;DHT22;55472;50.060;21.960;2023-01-28T10:21:35;-0.20;75.60
68485;DHT22;55472;50.060;21.960;2023-01-28T10:24:31;-0.10;75.60
68485;DHT22;55472;50.060;21.960;2023-01-28T10:27:01;-0.10;75.50
68485;DHT22;55472;50.060;21.960;2023-01-28T10:29:32;-0.10;75.50
68485;DHT22;55472;50.060;21.960;2023-01-28T10:32:05;-0.10;74.80
68485;DHT22;55472;50.060;21.960;2023-01-28T10:34:55;0.00;75.00
68485;DHT22;55472;50.060;21.960;2023-01-28T10:37:25;0.00;74.90
68485;DHT22;55472;50.060;21.960;2023-01-28T10:39:57;0.00;74.70
68485;DHT22;55472;50.060;21.960;2023-01-28T10:47:41;0.10;74.00
68485;DHT22;55472;50.060;21.960;2023-01-28T10:50:21;0.10;73.70
68485;DHT22;55472;50.060;21.960;2023-01-28T10:52:58;0.10;73.50
68485;DHT22;55472;50.060;21.960;2023-01-28T10:55:51;0.10;73.50
68485;DHT22;55472;50.060;21.960;2023-01-28T10:58:24;0.20;73.30
68485;DHT22;55472;50.060;21.960;2023-01-28T11:00:58;0.20;73.60
68485;DHT22;55472;50.060;21.960;2023-01-28T11:03:25;0.30;73.60
68485;DHT22;55472;50.060;21.960;2023-01-28T11:05:53;0.30;73.70
68485;DHT22;55472;50.060;21.960;2023-01-28T11:08:22;0.40;73.00
68485;DHT22;55472;50.060;21.960;2023-01-28T11:10:50;0.50;72.70
68485;DHT22;55472;50.060;21.960;2023-01-28T11:16:04;0.60;72.00
68485;DHT22;55472;50.060;21.960;2023-01-28T11:19:03;0.70;72.50
68485;DHT22;55472;50.060;21.960;2023-01-28T11:21:31;0.80;72.40
68485;DHT22;55472;50.060;21.960;2023-01-28T11:24:00;0.90;71.90
68485;DHT22;55472;50.060;21.960;2023-01-28T11:26:31;1.00;71.60
68485;DHT22;55472;50.060;21.960;2023-01-28T11:28:59;1.00;71.10
68485;DHT22;55472;50.060;21.960;2023-01-28T11:31:26;1.00;71.20
68485;DHT22;55472;50.060;21.960;2023-01-28T11:34:00;1.10;71.50
68485;DHT22;55472;50.060;21.960;2023-01-28T11:36:29;1.10;71.00
68485;DHT22;55472;50.060;21.960;2023-01-28T11:39:19;1.20;70.30
68485;DHT22;55472;50.060;21.960;2023-01-28T11:41:47;1.10;69.20
68485;DHT22;55472;50.060;21.960;2023-01-28T12:01:33;1.10;69.70
68485;DHT22;55472;50.060;21.960;2023-01-28T12:24:39;1.20;69.50
68485;DHT22;55472;50.060;21.960;2023-01-28T12:27:34;1.30;69.40
68485;DHT22;55472;50.060;21.960;2023-01-28T12:30:28;1.20;69.50
68485;DHT22;55472;50.060;21.960;2023-01-28T12:33:27;1.20;69.80
68485;DHT22;55472;50.060;21.960;2023-01-28T12:36:15;1.20;69.50
68485;DHT22;55472;50.060;21.960;2023-01-28T12:42:12;1.10;70.60
68485;DHT22;55472;50.060;21.960;2023-01-28T12:44:48;1.10;69.90
68485;DHT22;55472;50.060;21.960;2023-01-28T12:47:28;1.10;70.20
68485;DHT22;55472;50.060;21.960;2023-01-28T12:50:14;1.10;70.90
68485;DHT22;55472;50.060;21.960;2023-01-28T12:52:48;1.10;70.70
68485;DHT22;55472;50.060;21.960;2023-01-28T12:55:21;1.10;70.70
68485;DHT22;55472;50.060;21.960;2023-01-28T12:58:23;1.10;70.70
68485;DHT22;55472;50.060;21.960;2023-01-28T13:01:02;1.10;71.20
68485;DHT22;55472;50.060;21.960;2023-01-28T13:03:33;1.10;71.60
68485;DHT22;55472;50.060;21.960;2023-01-28T13:06:13;1.10;70.70
68485;DHT22;55472;50.060;21.960;2023-01-28T13:08:42;1.00;70.70
68485;DHT22;55472;50.060;21.960;2023-01-28T13:11:33;1.00;70.90
68485;DHT22;55472;50.060;21.960;2023-01-28T13:14:03;1.00;71.50
68485;DHT22;55472;50.060;21.960;2023-01-28T13:16:30;0.90;70.90
68485;DHT22;55472;50.060;21.960;2023-01-28T13:19:39;0.90;71.40
68485;DHT22;55472;50.060;21.960;2023-01-28T13:22:25;0.90;71.70
68485;DHT22;55472;50.060;21.960;2023-01-28T13:25:10;0.90;71.60
68485;DHT22;55472;50.060;21.960;2023-01-28T13:30:28;0.80;71.70
68485;DHT22;55472;50.060;21.960;2023-01-28T13:33:24;0.80;71.90
68485;DHT22;55472;50.060;21.960;2023-01-28T13:35:55;0.70;71.90
68485;DHT22;55472;50.060;21.960;2023-01-28T13:38:22;0.70;72.00
68485;DHT22;55472;50.060;21.960;2023-01-28T13:40:57;0.70;72.20
68485;DHT22;55472;50.060;21.960;2023-01-28T13:46:09;0.60;72.30
68485;DHT22;55472;50.060;21.960;2023-01-28T13:48:57;0.60;72.80
68485;DHT22;55472;50.060;21.960;2023-01-28T13:51:30;0.50;73.10
68485;DHT22;55472;50.060;21.960;2023-01-28T13:54:11;0.50;73.20
68485;DHT22;55472;50.060;21.960;2023-01-28T14:02:21;0.40;73.60
68485;DHT22;55472;50.060;21.960;2023-01-28T14:19:34;0.30;74.90
68485;DHT22;55472;50.060;21.960;2023-01-28T14:22:06;0.20;75.00
68485;DHT22;55472;50.060;21.960;2023-01-28T14:24:36;0.20;75.60
68485;DHT22;55472;50.060;21.960;2023-01-28T14:27:19;0.20;75.20
68485;DHT22;55472;50.060;21.960;2023-01-28T14:30:12;0.20;75.50
68485;DHT22;55472;50.060;21.960;2023-01-28T14:32:49;0.20;75.80
68485;DHT22;55472;50.060;21.960;2023-01-28T14:35:34;0.20;75.50
68485;DHT22;55472;50.060;21.960;2023-01-28T14:38:13;0.10;75.60
68485;DHT22;55472;50.060;21.960;2023-01-28T14:40:42;0.10;76.10
68485;DHT22;55472;50.060;21.960;2023-01-28T14:43:17;0.10;76.00
68485;DHT22;55472;50.060;21.960;2023-01-28T14:55:33;-0.10;76.80
68485;DHT22;55472;50.060;21.960;2023-01-28T14:58:13;-0.10;76.70
68485;DHT22;55472;50.060;21.960;2023-01-28T15:00:53;-0.10;76.90
68485;DHT22;55472;50.060;21.960;2023-01-28T15:03:21;-0.20;76.60
68485;DHT22;55472;50.060;21.960;2023-01-28T15:05:48;-0.20;76.80
68485;DHT22;55472;50.060;21.960;2023-01-28T15:08:23;-0.20;76.70
68485;DHT22;55472;50.060;21.960;2023-01-28T15:10:51;-0.20;76.60
68485;DHT22;55472;50.060;21.960;2023-01-28T15:13:29;-0.20;77.00
68485;DHT22;55472;50.060;21.960;2023-01-28T15:15:57;-0.20;77.30
68485;DHT22;55472;50.060;21.960;2023-01-28T15:18:34;-0.20;78.10
68485;DHT22;55472;50.060;21.960;2023-01-28T15:21:03;-0.20;77.80
68485;DHT22;55472;50.060;21.960;2023-01-28T15:23:38;-0.20;78.20
68485;DHT22;55472;50.060;21.960;2023-01-28T15:26:13;-0.30;78.30
68485;DHT22;55472;50.060;21.960;2023-01-28T15:28:44;-0.30;78.50
68485;DHT22;55472;50.060;21.960;2023-01-28T15:31:24;-0.30;78.80
68485;DHT22;55472;50.060;21.960;2023-01-28T15:36:35;-0.40;78.70
68485;DHT22;55472;50.060;21.960;2023-01-28T15:39:02;-0.40;78.70
68485;DHT22;55472;50.060;21.960;2023-01-28T15:41:33;-0.50;78.70
68485;DHT22;55472;50.060;21.960;2023-01-28T15:44:02;-0.50;78.70
68485;DHT22;55472;50.060;21.960;2023-01-28T15:46:29;-0.50;79.10
68485;DHT22;55472;50.060;21.960;2023-01-28T15:49:01;-0.50;79.40
68485;DHT22;55472;50.060;21.960;2023-01-28T15:51:32;-0.50;79.60
68485;DHT22;55472;50.060;21.960;2023-01-28T15:54:02;-0.50;79.80
68485;DHT22;55472;50.060;21.960;2023-01-28T15:56:31;-0.50;80.00
68485;DHT22;55472;50.060;21.960;2023-01-28T15:59:21;-0.50;80.00
68485;DHT22;55472;50.060;21.960;2023-01-28T16:02:03;-0.50;80.20
68485;DHT22;55472;50.060;21.960;2023-01-28T16:04:40;-0.50;80.40
68485;DHT22;55472;50.060;21.960;2023-01-28T16:07:06;-0.50;80.40
68485;DHT22;55472;50.060;21.960;2023-01-28T16:09:34;-0.50;80.80
68485;DHT22;55472;50.060;21.960;2023-01-28T16:12:06;-0.50;80.70
68485;DHT22;55472;50.060;21.960;2023-01-28T16:14:43;-0.50;80.90
68485;DHT22;55472;50.060;21.960;2023-01-28T16:17:20;-0.60;81.00
68485;DHT22;55472;50.060;21.960;2023-01-28T16:19:50;-0.50;81.20
68485;DHT22;55472;50.060;21.960;2023-01-28T16:22:38;-0.60;81.50
68485;DHT22;55472;50.060;21.960;2023-01-28T16:25:31;-0.60;81.90
68485;DHT22;55472;50.060;21.960;2023-01-28T16:28:00;-0.60;81.90
68485;DHT22;55472;50.060;21.960;2023-01-28T16:30:28;-0.60;82.00
68485;DHT22;55472;50.060;21.960;2023-01-28T16:32:54;-0.60;81.80
68485;DHT22;55472;50.060;21.960;2023-01-28T16:35:23;-0.60;82.00
68485;DHT22;55472;50.060;21.960;2023-01-28T16:37:51;-0.60;81.90
68485;DHT22;55472;50.060;21.960;2023-01-28T16:40:22;-0.60;81.90
68485;DHT22;55472;50.060;21.960;2023-01-28T16:42:52;-0.70;82.20
68485;DHT22;55472;50.060;21.960;2023-01-28T16:45:22;-0.60;82.40
68485;DHT22;55472;50.060;21.960;2023-01-28T16:47:51;-0.60;82.40
68485;DHT22;55472;50.060;21.960;2023-01-28T16:50:18;-0.60;82.90
68485;DHT22;55472;50.060;21.960;2023-01-28T16:52:48;-0.60;82.90
68485;DHT22;55472;50.060;21.960;2023-01-28T16:55:18;-0.60;83.00
68485;DHT22;55472;50.060;21.960;2023-01-28T16:57:46;-0.60;83.30
68485;DHT22;55472;50.060;21.960;2023-01-28T17:00:22;-0.60;83.60
68485;DHT22;55472;50.060;21.960;2023-01-28T17:02:51;-0.60;83.80
68485;DHT22;55472;50.060;21.960;2023-01-28T17:05:19;-0.70;83.50
68485;DHT22;55472;50.060;21.960;2023-01-28T17:07:47;-0.70;83.90
68485;DHT22;55472;50.060;21.960;2023-01-28T17:10:17;-0.70;83.80
68485;DHT22;55472;50.060;21.960;2023-01-28T17:12:48;-0.70;83.90
68485;DHT22;55472;50.060;21.960;2023-01-28T17:15:14;-0.70;84.00
68485;DHT22;55472;50.060;21.960;2023-01-28T17:17:40;-0.70;83.90
68485;DHT22;55472;50.060;21.960;2023-01-28T17:20:07;-0.70;84.30
68485;DHT22;55472;50.060;21.960;2023-01-28T17:22:34;-0.70;84.20
68485;DHT22;55472;50.060;21.960;2023-01-28T17:25:01;-0.70;84.20
68485;DHT22;55472;50.060;21.960;2023-01-28T17:27:27;-0.70;84.00
68485;DHT22;55472;50.060;21.960;2023-01-28T17:29:53;-0.70;83.90
68485;DHT22;55472;50.060;21.960;2023-01-28T17:32:19;-0.70;84.00
68485;DHT22;55472;50.060;21.960;2023-01-28T17:34:48;-0.70;84.20
68485;DHT22;55472;50.060;21.960;2023-01-28T17:37:15;-0.70;84.50
68485;DHT22;55472;50.060;21.960;2023-01-28T17:39:41;-0.80;84.40
68485;DHT22;55472;50.060;21.960;2023-01-28T17:42:07;-0.80;84.60
68485;DHT22;55472;50.060;21.960;2023-01-28T17:44:33;-0.70;84.70